createdAt,value
2023-02-14T00:01:25.811Z,1.53
2023-02-14T00:03:54.700Z,1.57
2023-02-14T00:06:22.465Z,1.49
2023-02-14T00:08:52.324Z,1.47
2023-02-14T00:11:20.141Z,1.20
2023-02-14T00:14:02.095Z,1.27
2023-02-14T00:16:31.552Z,1.37
2023-02-14T00:19:05.996Z,1.21
2023-02-14T00:21:36.958Z,1.39
2023-02-14T00:24:05.318Z,1.46
2023-02-14T00:26:33.186Z,0.98
2023-02-14T00:29:01.001Z,1.41
2023-02-14T00:31:28.902Z,1.22
2023-02-14T00:33:58.205Z,1.30
2023-02-14T00:36:26.406Z,1.33
2023-02-14T00:38:54.328Z,1.26
2023-02-14T00:41:22.319Z,1.30
2023-02-14T00:43:51.637Z,1.39
2023-02-14T00:46:20.486Z,1.45
2023-02-14T00:48:48.975Z,1.39
2023-02-14T00:51:18.828Z,1.32
2023-02-14T00:53:47.757Z,1.49
2023-02-14T00:56:16.416Z,1.57
2023-02-14T00:58:44.966Z,1.50
2023-02-14T01:01:13.511Z,1.51
2023-02-14T01:03:41.337Z,1.48
2023-02-14T01:06:10.001Z,1.39
2023-02-14T01:08:39.209Z,1.36
2023-02-14T01:11:12.756Z,1.28
2023-02-14T01:13:41.113Z,1.11
2023-02-14T01:16:10.935Z,1.01
2023-02-14T01:18:39.114Z,1.06
2023-02-14T01:21:15.720Z,1.00
2023-02-14T01:23:45.599Z,0.95
2023-02-14T01:26:13.934Z,1.07
2023-02-14T01:28:42.434Z,0.60
2023-02-14T01:31:13.307Z,0.96
2023-02-14T01:33:42.835Z,0.96
2023-02-14T01:36:17.035Z,1.05
2023-02-14T01:38:46.325Z,1.04
2023-02-14T01:41:14.799Z,0.98
2023-02-14T01:43:58.248Z,0.99
2023-02-14T01:46:27.286Z,0.98
2023-02-14T01:49:00.357Z,0.85
2023-02-14T01:51:28.554Z,0.93
2023-02-14T01:53:58.790Z,0.85
2023-02-14T01:56:33.458Z,0.94
2023-02-14T01:59:04.034Z,1.01
2023-02-14T02:01:32.598Z,0.87
2023-02-14T02:04:06.466Z,1.02
2023-02-14T02:06:38.921Z,0.99
2023-02-14T02:09:14.156Z,0.93
2023-02-14T02:11:43.525Z,1.05
2023-02-14T02:14:15.538Z,1.01
2023-02-14T02:16:48.476Z,0.97
2023-02-14T02:19:49.419Z,0.83
2023-02-14T02:22:51.263Z,0.82
2023-02-14T02:25:41.869Z,0.98
2023-02-14T02:28:38.695Z,0.86
2023-02-14T02:31:32.452Z,0.99
2023-02-14T02:34:19.789Z,1.07
2023-02-14T02:37:13.806Z,1.07
2023-02-14T02:39:59.152Z,1.01
2023-02-14T02:42:35.322Z,1.07
2023-02-14T02:45:13.140Z,0.99
2023-02-14T02:47:45.700Z,1.03
2023-02-14T02:50:41.157Z,1.01
2023-02-14T02:53:21.299Z,1.12
2023-02-14T02:56:12.062Z,1.13
2023-02-14T02:58:43.980Z,1.15
2023-02-14T03:01:15.347Z,1.23
2023-02-14T03:04:05.634Z,1.32
2023-02-14T03:06:35.094Z,1.01
2023-02-14T03:09:13.319Z,1.05
2023-02-14T03:11:49.922Z,0.94
2023-02-14T03:14:21.578Z,0.86
2023-02-14T03:17:05.010Z,1.02
2023-02-14T03:20:00.491Z,0.90
2023-02-14T03:22:40.573Z,0.87
2023-02-14T03:25:18.714Z,0.83
2023-02-14T03:27:51.042Z,0.95
2023-02-14T03:30:26.740Z,0.82
2023-02-14T03:33:00.931Z,0.99
2023-02-14T03:35:33.593Z,1.14
2023-02-14T03:38:09.304Z,1.07
2023-02-14T03:40:43.645Z,1.18
2023-02-14T03:43:15.073Z,1.27
2023-02-14T03:45:48.701Z,1.14
2023-02-14T03:48:18.664Z,1.10
2023-02-14T03:50:48.944Z,1.02
2023-02-14T03:53:21.256Z,1.11
2023-02-14T03:56:02.782Z,1.08
2023-02-14T03:58:35.366Z,0.93
2023-02-14T04:01:09.149Z,0.95
2023-02-14T04:03:45.283Z,1.13
2023-02-14T04:06:13.392Z,0.95
2023-02-14T04:08:41.206Z,1.08
2023-02-14T04:11:10.435Z,1.00
2023-02-14T04:13:40.068Z,1.12
2023-02-14T04:16:08.437Z,1.05
2023-02-14T04:18:53.932Z,1.19
2023-02-14T04:21:21.780Z,1.20
2023-02-14T04:23:49.531Z,1.03
2023-02-14T04:26:18.796Z,0.82
2023-02-14T04:28:46.644Z,0.66
2023-02-14T04:31:14.569Z,0.68
2023-02-14T04:33:42.668Z,0.60
2023-02-14T04:36:10.968Z,0.61
2023-02-14T04:38:38.759Z,0.80
2023-02-14T04:41:06.857Z,0.69
2023-02-14T04:43:36.004Z,0.65
2023-02-14T04:46:03.794Z,0.74
2023-02-14T04:48:31.757Z,0.74
2023-02-14T04:51:00.056Z,0.79
2023-02-14T04:53:28.286Z,0.68
2023-02-14T04:55:56.172Z,0.72
2023-02-14T04:58:24.208Z,0.50
2023-02-14T05:00:53.643Z,0.52
2023-02-14T05:03:21.620Z,0.51
2023-02-14T05:05:49.421Z,0.32
2023-02-14T05:08:17.222Z,0.46
2023-02-14T05:10:44.990Z,0.17
2023-02-14T05:13:12.687Z,0.27
2023-02-14T05:15:40.577Z,0.33
2023-02-14T05:18:10.459Z,0.27
2023-02-14T05:20:40.754Z,0.35
2023-02-14T05:23:13.737Z,0.30
2023-02-14T05:25:41.721Z,0.19
2023-02-14T05:28:10.019Z,0.25
2023-02-14T05:30:39.690Z,0.19
2023-02-14T05:33:11.076Z,0.18
2023-02-14T05:35:38.983Z,0.35
2023-02-14T05:38:07.070Z,0.34
2023-02-14T05:40:34.932Z,0.47
2023-02-14T05:43:02.934Z,0.53
2023-02-14T05:45:31.008Z,0.48
2023-02-14T05:48:00.927Z,0.33
2023-02-14T05:50:31.173Z,0.13
2023-02-14T05:52:59.136Z,0.26
2023-02-14T05:55:27.267Z,0.27
2023-02-14T05:57:55.257Z,0.36
2023-02-14T06:00:25.039Z,0.36
2023-02-14T06:02:52.866Z,0.27
2023-02-14T06:05:20.772Z,0.42
2023-02-14T06:07:51.410Z,0.37
2023-02-14T06:10:19.951Z,0.46
2023-02-14T06:12:50.125Z,0.19
2023-02-14T06:15:18.264Z,0.22
2023-02-14T06:17:47.257Z,0.12
2023-02-14T06:20:15.248Z,0.17
2023-02-14T06:22:43.328Z,0.40
2023-02-14T06:25:12.591Z,0.32
2023-02-14T06:27:40.719Z,0.48
2023-02-14T06:30:10.201Z,0.51
2023-02-14T06:32:38.113Z,0.39
2023-02-14T06:35:06.629Z,0.33
2023-02-14T06:37:34.701Z,0.41
2023-02-14T06:40:02.809Z,0.52
2023-02-14T06:42:31.980Z,0.58
2023-02-14T06:44:59.953Z,0.63
2023-02-14T06:47:28.043Z,0.55
2023-02-14T06:49:55.893Z,0.46
2023-02-14T06:52:23.672Z,0.61
2023-02-14T06:54:51.446Z,0.63
2023-02-14T06:57:19.279Z,0.65
2023-02-14T06:59:48.627Z,0.60
2023-02-14T07:02:16.513Z,0.56
2023-02-14T07:04:44.366Z,0.59
2023-02-14T07:07:12.251Z,0.57
2023-02-14T07:09:40.208Z,0.67
2023-02-14T07:12:08.370Z,0.54
2023-02-14T07:14:37.486Z,0.57
2023-02-14T07:17:06.772Z,0.48
2023-02-14T07:19:34.776Z,0.34
2023-02-14T07:22:02.521Z,0.59
2023-02-14T07:24:30.435Z,0.62
2023-02-14T07:26:58.325Z,0.70
2023-02-14T07:29:26.262Z,0.70
2023-02-14T07:31:54.255Z,0.70
2023-02-14T07:34:23.630Z,0.86
2023-02-14T07:36:51.427Z,0.97
2023-02-14T07:39:19.229Z,1.09
2023-02-14T07:41:47.167Z,1.08
2023-02-14T07:44:14.957Z,1.35
2023-02-14T07:46:42.863Z,1.05
2023-02-14T07:49:10.741Z,0.96
2023-02-14T07:51:40.260Z,1.00
2023-02-14T07:54:08.235Z,0.87
2023-02-14T07:56:36.328Z,1.15
2023-02-14T07:59:04.355Z,1.17
2023-02-14T08:01:32.167Z,0.95
2023-02-14T08:04:00.128Z,1.05
2023-02-14T08:06:28.027Z,0.94
2023-02-14T08:08:57.255Z,1.03
2023-02-14T08:11:42.660Z,0.91
2023-02-14T08:14:10.501Z,0.90
2023-02-14T08:16:39.725Z,0.80
2023-02-14T08:19:07.642Z,1.01
2023-02-14T08:21:35.772Z,1.16
2023-02-14T08:24:05.607Z,1.16
2023-02-14T08:26:33.672Z,1.03
2023-02-14T08:29:03.125Z,1.08
2023-02-14T08:31:35.964Z,1.03
2023-02-14T08:34:05.066Z,1.27
2023-02-14T08:36:33.284Z,1.18
2023-02-14T08:39:01.467Z,0.98
2023-02-14T08:41:30.660Z,1.12
2023-02-14T08:43:58.495Z,1.33
2023-02-14T08:46:26.541Z,1.38
2023-02-14T08:48:54.878Z,1.51
2023-02-14T08:51:23.012Z,1.61
2023-02-14T08:53:51.696Z,1.71
2023-02-14T08:56:21.368Z,1.74
2023-02-14T08:58:53.349Z,1.46
2023-02-14T09:01:21.596Z,1.25
2023-02-14T09:03:49.730Z,1.18
2023-02-14T09:06:18.394Z,1.16
2023-02-14T09:08:46.793Z,1.25
2023-02-14T09:11:18.498Z,1.63
2023-02-14T09:13:47.702Z,1.69
2023-02-14T09:16:19.050Z,1.68
2023-02-14T09:18:48.533Z,1.61
2023-02-14T09:21:20.352Z,1.84
2023-02-14T09:23:48.211Z,1.56
2023-02-14T09:26:17.621Z,1.62
2023-02-14T09:28:45.858Z,1.40
2023-02-14T09:31:17.229Z,1.44
2023-02-14T09:33:46.298Z,1.60
2023-02-14T09:36:31.853Z,1.11
2023-02-14T09:38:59.632Z,1.28
2023-02-14T09:41:43.601Z,1.49
2023-02-14T09:44:19.892Z,1.43
2023-02-14T09:46:53.551Z,1.33
2023-02-14T09:49:29.842Z,1.05
2023-02-14T09:51:58.543Z,1.28
2023-02-14T09:54:29.061Z,1.17
2023-02-14T09:57:02.729Z,1.68
2023-02-14T09:59:36.937Z,1.45
2023-02-14T10:02:26.176Z,1.66
2023-02-14T10:05:03.261Z,1.80
2023-02-14T10:07:38.703Z,1.68
2023-02-14T10:10:14.853Z,1.89
2023-02-14T10:12:49.107Z,2.15
2023-02-14T10:15:20.169Z,2.33
2023-02-14T10:17:54.628Z,2.42
2023-02-14T10:20:27.281Z,2.28
2023-02-14T10:23:04.670Z,2.25
2023-02-14T10:25:38.538Z,2.28
2023-02-14T10:28:07.223Z,2.37
2023-02-14T10:30:39.983Z,2.25
2023-02-14T10:33:16.677Z,2.52
2023-02-14T10:35:49.135Z,2.79
2023-02-14T10:38:29.329Z,3.19
2023-02-14T10:41:19.617Z,2.97
2023-02-14T10:43:54.983Z,2.71
2023-02-14T10:46:34.272Z,2.85
2023-02-14T10:49:14.373Z,2.76
2023-02-14T10:51:47.003Z,3.22
2023-02-14T10:54:21.580Z,3.37
2023-02-14T10:56:55.341Z,3.26
2023-02-14T10:59:28.938Z,3.37
2023-02-14T11:01:59.960Z,3.47
2023-02-14T11:04:30.967Z,3.20
2023-02-14T11:06:58.715Z,3.43
2023-02-14T11:09:26.465Z,3.21
2023-02-14T11:11:57.394Z,3.17
2023-02-14T11:14:30.036Z,2.98
2023-02-14T11:16:59.708Z,3.13
2023-02-14T11:19:31.024Z,3.40
2023-02-14T11:22:00.820Z,3.23
2023-02-14T11:24:31.289Z,3.60
2023-02-14T11:27:02.848Z,4.22
2023-02-14T11:29:32.784Z,4.11
2023-02-14T11:32:09.339Z,3.39
2023-02-14T11:34:41.800Z,4.37
2023-02-14T11:37:26.320Z,3.54
2023-02-14T11:39:56.005Z,3.79
2023-02-14T11:42:42.632Z,3.89
2023-02-14T11:45:28.641Z,3.97
2023-02-14T11:48:10.567Z,4.66
2023-02-14T11:50:40.459Z,4.22
2023-02-14T11:53:13.124Z,4.83
2023-02-14T11:55:42.178Z,4.44
2023-02-14T11:58:29.921Z,4.60
2023-02-14T12:00:57.936Z,4.84
2023-02-14T12:03:28.229Z,4.74
2023-02-14T12:06:00.758Z,4.71
2023-02-14T12:08:31.786Z,4.96
2023-02-14T12:11:04.404Z,5.36
2023-02-14T12:13:33.645Z,5.54
2023-02-14T12:16:01.528Z,6.08
2023-02-14T12:18:41.977Z,6.15
2023-02-14T12:21:26.025Z,6.77
2023-02-14T12:24:03.350Z,7.89
2023-02-14T12:26:34.935Z,8.48
2023-02-14T12:29:10.920Z,8.04
2023-02-14T12:31:38.795Z,7.40
2023-02-14T12:34:07.273Z,7.77
2023-02-14T12:36:47.078Z,8.57
2023-02-14T12:39:26.852Z,9.31
2023-02-14T12:42:03.504Z,9.19
2023-02-14T12:44:45.202Z,9.96
2023-02-14T12:47:20.308Z,10.15
2023-02-14T12:50:18.602Z,10.09
2023-02-14T12:53:02.417Z,10.03
2023-02-14T12:55:47.057Z,9.68
2023-02-14T12:58:25.227Z,11.76
2023-02-14T13:01:06.352Z,10.78
2023-02-14T13:04:01.075Z,10.70
2023-02-14T13:06:31.562Z,10.02
2023-02-14T13:09:14.863Z,9.44
2023-02-14T13:11:53.050Z,8.18
2023-02-14T13:14:37.901Z,7.82
2023-02-14T13:17:13.236Z,6.63
2023-02-14T13:19:49.173Z,6.75
2023-02-14T13:22:21.655Z,6.60
2023-02-14T13:24:54.821Z,6.23
2023-02-14T13:27:24.913Z,6.17
2023-02-14T13:29:59.210Z,5.87
2023-02-14T13:32:30.583Z,5.88
2023-02-14T13:34:59.603Z,5.70
2023-02-14T13:37:29.530Z,5.73
2023-02-14T13:40:02.421Z,5.37
2023-02-14T13:42:56.494Z,5.18
2023-02-14T13:46:06.843Z,4.94
2023-02-14T13:48:34.800Z,5.11
2023-02-14T13:51:05.082Z,5.12
2023-02-14T13:53:39.486Z,4.96
2023-02-14T13:56:34.002Z,5.09
2023-02-14T13:59:05.489Z,4.85
2023-02-14T14:01:36.917Z,4.90
2023-02-14T14:04:07.478Z,4.97
2023-02-14T14:07:13.939Z,5.09
2023-02-14T14:10:32.343Z,4.90
2023-02-14T14:13:01.500Z,4.64
2023-02-14T14:15:29.701Z,4.77
2023-02-14T14:18:32.924Z,4.84
2023-02-14T14:21:00.770Z,4.82
2023-02-14T14:23:34.428Z,4.86
2023-02-14T14:26:03.369Z,4.82
2023-02-14T14:28:34.207Z,4.82
2023-02-14T14:31:02.217Z,4.87
2023-02-14T14:33:32.286Z,4.66
2023-02-14T14:36:02.827Z,4.67
2023-02-14T14:38:32.105Z,4.55
2023-02-14T14:41:01.215Z,4.58
2023-02-14T14:43:34.755Z,4.63
2023-02-14T14:46:04.114Z,4.63
2023-02-14T14:48:34.739Z,4.67
2023-02-14T14:51:05.196Z,4.78
2023-02-14T14:53:42.106Z,4.70
2023-02-14T14:56:13.992Z,4.76
2023-02-14T14:58:43.265Z,4.77
2023-02-14T15:01:21.179Z,4.69
2023-02-14T15:03:49.982Z,4.76
2023-02-14T15:06:20.776Z,4.78
2023-02-14T15:08:51.492Z,4.71
2023-02-14T15:11:41.547Z,4.72
2023-02-14T15:14:16.504Z,4.75
2023-02-14T15:16:48.813Z,4.84
2023-02-14T15:19:22.191Z,4.74
2023-02-14T15:21:50.988Z,4.73
2023-02-14T15:24:20.515Z,4.72
2023-02-14T15:26:53.356Z,4.61
2023-02-14T15:29:24.959Z,4.58
2023-02-14T15:31:53.907Z,4.54
2023-02-14T15:34:31.089Z,4.54
2023-02-14T15:37:03.969Z,4.58
2023-02-14T15:39:37.832Z,4.63
2023-02-14T15:42:06.975Z,4.64
2023-02-14T15:44:36.278Z,4.61
2023-02-14T15:47:06.801Z,4.63
2023-02-14T15:49:37.237Z,4.45
2023-02-14T15:52:06.738Z,4.33
2023-02-14T15:54:38.964Z,4.30
2023-02-14T15:57:08.802Z,4.22
2023-02-14T15:59:42.775Z,4.29
2023-02-14T16:02:25.745Z,4.30
2023-02-14T16:04:53.855Z,4.26
2023-02-14T16:07:25.462Z,4.25
2023-02-14T16:10:24.096Z,4.08
2023-02-14T16:12:57.721Z,3.93
2023-02-14T16:15:28.811Z,3.94
2023-02-14T16:17:56.817Z,3.75
2023-02-14T16:20:30.345Z,3.75
2023-02-14T16:23:21.942Z,3.67
2023-02-14T16:25:50.939Z,3.55
2023-02-14T16:28:19.133Z,3.58
2023-02-14T16:30:54.072Z,3.58
2023-02-14T16:33:24.241Z,3.46
2023-02-14T16:35:52.370Z,3.47
2023-02-14T16:38:21.662Z,3.47
2023-02-14T16:40:51.911Z,3.26
2023-02-14T16:43:21.369Z,3.34
2023-02-14T16:45:50.726Z,3.21
2023-02-14T16:48:18.744Z,3.23
2023-02-14T16:50:47.578Z,3.22
2023-02-14T16:53:26.626Z,3.15
2023-02-14T16:55:56.964Z,3.17
2023-02-14T16:58:28.253Z,3.02
2023-02-14T17:00:58.733Z,3.02
2023-02-14T17:03:26.782Z,2.98
2023-02-14T17:05:56.011Z,3.01
2023-02-14T17:08:24.055Z,2.99
2023-02-14T17:10:52.371Z,2.94
2023-02-14T17:13:24.005Z,2.85
2023-02-14T17:15:52.253Z,2.86
2023-02-14T17:18:24.385Z,2.82
2023-02-14T17:20:52.404Z,2.81
2023-02-14T17:23:20.817Z,2.67
2023-02-14T17:25:49.154Z,2.63
2023-02-14T17:28:17.231Z,2.64
2023-02-14T17:30:45.046Z,2.55
2023-02-14T17:33:13.502Z,2.40
2023-02-14T17:35:42.751Z,2.36
2023-02-14T17:38:10.981Z,2.30
2023-02-14T17:40:38.850Z,2.15
2023-02-14T17:43:07.177Z,2.14
2023-02-14T17:45:36.473Z,2.04
2023-02-14T17:48:04.358Z,2.09
2023-02-14T17:50:32.081Z,2.05
2023-02-14T17:53:01.214Z,1.84
2023-02-14T17:55:29.009Z,1.85
2023-02-14T17:57:56.881Z,1.56
2023-02-14T18:00:25.419Z,1.67
2023-02-14T18:02:53.198Z,1.66
2023-02-14T18:05:21.064Z,1.65
2023-02-14T18:07:48.810Z,1.64
2023-02-14T18:10:18.288Z,1.66
2023-02-14T18:12:46.153Z,1.56
2023-02-14T18:15:13.964Z,1.57
2023-02-14T18:17:41.914Z,1.53
2023-02-14T18:20:10.732Z,1.59
2023-02-14T18:22:38.535Z,1.48
2023-02-14T18:25:07.563Z,1.74
2023-02-14T18:27:36.685Z,1.62
2023-02-14T18:30:05.179Z,1.73
2023-02-14T18:32:33.177Z,1.77
2023-02-14T18:35:01.559Z,1.78
2023-02-14T18:37:29.416Z,1.74
2023-02-14T18:39:57.153Z,1.84
2023-02-14T18:42:24.865Z,1.79
2023-02-14T18:44:54.793Z,1.66
2023-02-14T18:47:22.678Z,1.59
2023-02-14T18:49:50.724Z,1.62
2023-02-14T18:52:18.467Z,1.51
2023-02-14T18:54:46.321Z,1.43
2023-02-14T18:57:14.131Z,1.25
2023-02-14T18:59:41.866Z,1.46
2023-02-14T19:02:12.067Z,1.47
2023-02-14T19:04:39.919Z,1.44
2023-02-14T19:07:07.720Z,1.43
2023-02-14T19:09:39.449Z,1.52
2023-02-14T19:12:07.661Z,1.22
2023-02-14T19:14:35.607Z,1.18
2023-02-14T19:17:04.588Z,1.17
2023-02-14T19:19:33.876Z,1.07
2023-02-14T19:22:02.213Z,1.03
2023-02-14T19:24:30.029Z,0.99
2023-02-14T19:26:57.872Z,0.99
2023-02-14T19:29:25.651Z,1.01
2023-02-14T19:31:54.805Z,0.97
2023-02-14T19:34:28.922Z,0.78
2023-02-14T19:37:00.512Z,1.02
2023-02-14T19:39:30.454Z,1.00
2023-02-14T19:41:59.170Z,0.95
2023-02-14T19:44:28.821Z,0.82
2023-02-14T19:46:59.857Z,0.71
2023-02-14T19:49:29.257Z,0.68
2023-02-14T19:51:59.725Z,0.71
2023-02-14T19:54:27.553Z,0.73
2023-02-14T19:56:56.490Z,0.78
2023-02-14T19:59:24.415Z,0.70
2023-02-14T20:01:54.440Z,0.66
2023-02-14T20:04:24.332Z,0.72
2023-02-14T20:06:54.386Z,0.51
2023-02-14T20:09:24.713Z,0.48
2023-02-14T20:11:54.773Z,0.51
2023-02-14T20:14:24.481Z,0.58
2023-02-14T20:16:53.578Z,0.47
2023-02-14T20:19:24.349Z,0.51
2023-02-14T20:21:52.420Z,0.51
2023-02-14T20:24:23.425Z,0.52
2023-02-14T20:26:53.592Z,0.60
2023-02-14T20:29:22.275Z,0.49
2023-02-14T20:31:52.553Z,0.41
2023-02-14T20:34:21.327Z,0.46
2023-02-14T20:36:53.189Z,0.44
2023-02-14T20:39:21.166Z,0.49
2023-02-14T20:41:49.969Z,0.37
2023-02-14T20:44:21.616Z,0.44
2023-02-14T20:46:51.608Z,0.39
2023-02-14T20:49:19.812Z,0.29
2023-02-14T20:51:49.616Z,0.17
2023-02-14T20:54:18.175Z,0.11
2023-02-14T20:56:46.018Z,0.11
2023-02-14T20:59:14.516Z,0.12
2023-02-14T21:01:43.703Z,0.11
2023-02-14T21:04:11.568Z,0.10
2023-02-14T21:06:40.170Z,0.13
2023-02-14T21:09:08.630Z,0.07
2023-02-14T21:11:36.804Z,0.28
2023-02-14T21:14:04.797Z,0.24
2023-02-14T21:16:32.756Z,0.31
2023-02-14T21:19:02.063Z,0.22
2023-02-14T21:21:34.778Z,0.19
2023-02-14T21:24:06.008Z,0.08
2023-02-14T21:26:33.976Z,0.15
2023-02-14T21:29:02.707Z,0.36
2023-02-14T21:31:32.519Z,0.25
2023-02-14T21:34:03.251Z,0.09
2023-02-14T21:36:35.225Z,0.29
2023-02-14T21:39:03.763Z,0.34
2023-02-14T21:41:32.071Z,0.43
2023-02-14T21:44:01.111Z,-0.08
2023-02-14T21:46:31.088Z,0.30
2023-02-14T21:49:19.951Z,0.35
2023-02-14T21:51:48.279Z,0.29
2023-02-14T21:54:16.747Z,0.48
2023-02-14T21:56:44.762Z,0.41
2023-02-14T21:59:12.944Z,0.48
2023-02-14T22:01:42.940Z,0.35
2023-02-14T22:04:14.313Z,0.44
2023-02-14T22:06:47.132Z,0.43
2023-02-14T22:09:19.016Z,0.40
2023-02-14T22:11:47.579Z,0.43
2023-02-14T22:14:16.325Z,0.72
2023-02-14T22:16:44.244Z,0.71
2023-02-14T22:19:16.285Z,0.82
2023-02-14T22:21:43.925Z,0.59
2023-02-14T22:24:12.743Z,0.47
2023-02-14T22:26:41.738Z,0.45
2023-02-14T22:29:11.341Z,0.39
2023-02-14T22:31:41.188Z,0.57
2023-02-14T22:34:15.303Z,0.67
2023-02-14T22:36:43.405Z,0.69
2023-02-14T22:39:13.488Z,0.67
2023-02-14T22:41:41.434Z,0.79
2023-02-14T22:44:09.716Z,0.72
2023-02-14T22:46:40.450Z,0.68
2023-02-14T22:49:09.044Z,0.52
2023-02-14T22:51:40.619Z,0.56
2023-02-14T22:54:15.383Z,0.49
2023-02-14T22:56:44.642Z,0.51
2023-02-14T22:59:16.238Z,0.64
2023-02-14T23:01:45.447Z,0.74
2023-02-14T23:04:14.344Z,0.71
2023-02-14T23:06:45.062Z,0.47
2023-02-14T23:09:14.177Z,0.71
2023-02-14T23:11:44.439Z,0.79
2023-02-14T23:14:31.421Z,0.64
2023-02-14T23:17:17.193Z,0.60
2023-02-14T23:20:03.513Z,0.68
2023-02-14T23:22:35.041Z,0.65
2023-02-14T23:25:04.629Z,0.56
2023-02-14T23:27:35.308Z,0.63
2023-02-14T23:30:03.942Z,0.58
2023-02-14T23:32:31.816Z,0.46
2023-02-14T23:35:00.053Z,0.37
2023-02-14T23:37:28.060Z,0.47
2023-02-14T23:39:57.223Z,0.52
2023-02-14T23:42:24.944Z,0.41
2023-02-14T23:44:52.789Z,0.31
2023-02-14T23:47:20.988Z,0.57
2023-02-14T23:49:48.722Z,0.51
2023-02-14T23:52:16.433Z,0.48
2023-02-14T23:54:44.186Z,0.48
2023-02-14T23:57:13.351Z,0.44
2023-02-14T23:59:41.155Z,0.50
